createdAt,value
2017-12-27T00:00:46.553Z,68.70
2017-12-27T00:03:18.962Z,69.10
2017-12-27T00:06:00.071Z,69.40
2017-12-27T00:08:32.205Z,69.20
2017-12-27T00:11:04.690Z,69.10
2017-12-27T00:13:37.105Z,69.00
2017-12-27T00:16:09.466Z,68.70
2017-12-27T00:18:41.817Z,69.00
2017-12-27T00:21:14.194Z,68.90
2017-12-27T00:23:46.558Z,69.30
2017-12-27T00:26:18.864Z,69.10
2017-12-27T00:28:51.268Z,70.00
2017-12-27T00:34:10.589Z,69.30
2017-12-27T00:36:36.784Z,68.70
2017-12-27T00:39:03.762Z,69.50
2017-12-27T00:41:29.927Z,69.40
2017-12-27T00:43:56.118Z,68.70
2017-12-27T00:46:22.335Z,69.10
2017-12-27T00:48:48.562Z,69.10
2017-12-27T00:51:14.734Z,69.30
2017-12-27T00:53:40.921Z,69.60
2017-12-27T00:56:07.084Z,68.50
2017-12-27T00:58:33.306Z,69.00
2017-12-27T01:00:59.471Z,68.60
2017-12-27T01:03:25.666Z,68.80
2017-12-27T01:05:51.806Z,68.90
2017-12-27T01:08:17.958Z,68.50
2017-12-27T01:10:44.930Z,68.90
2017-12-27T01:13:11.121Z,68.90
2017-12-27T01:15:38.077Z,68.60
2017-12-27T01:18:05.046Z,67.50
2017-12-27T01:20:31.250Z,67.40
2017-12-27T01:22:58.161Z,68.20
2017-12-27T01:25:24.355Z,68.20
2017-12-27T01:27:50.498Z,67.00
2017-12-27T01:30:16.676Z,66.70
2017-12-27T01:32:43.655Z,67.20
2017-12-27T01:35:09.916Z,67.10
2017-12-27T01:37:36.162Z,67.50
2017-12-27T01:40:02.311Z,67.90
2017-12-27T01:42:29.238Z,68.10
2017-12-27T01:44:55.411Z,68.90
2017-12-27T01:47:21.626Z,67.70
2017-12-27T01:49:47.830Z,68.30
2017-12-27T01:52:14.722Z,68.80
2017-12-27T01:54:40.964Z,68.70
2017-12-27T01:57:07.129Z,68.90
2017-12-27T01:59:34.102Z,69.00
2017-12-27T02:02:00.306Z,69.00
2017-12-27T02:04:27.268Z,69.00
2017-12-27T02:06:53.497Z,69.00
2017-12-27T02:09:19.698Z,70.10
2017-12-27T02:11:46.664Z,69.00
2017-12-27T02:14:13.627Z,69.20
2017-12-27T02:16:39.842Z,69.20
2017-12-27T02:19:06.094Z,69.40
2017-12-27T02:21:32.343Z,69.00
2017-12-27T02:23:58.512Z,69.10
2017-12-27T02:26:25.480Z,68.90
2017-12-27T02:28:51.709Z,68.90
2017-12-27T02:31:17.887Z,69.10
2017-12-27T02:33:44.073Z,69.00
2017-12-27T02:36:10.222Z,68.90
2017-12-27T02:38:48.826Z,68.80
2017-12-27T02:41:14.985Z,69.30
2017-12-27T02:43:48.092Z,69.10
2017-12-27T02:46:14.270Z,69.20
2017-12-27T02:48:40.438Z,69.20
2017-12-27T02:51:06.577Z,69.00
2017-12-27T02:53:33.566Z,69.10
2017-12-27T02:55:59.751Z,69.10
2017-12-27T02:58:26.720Z,68.80
2017-12-27T03:00:52.904Z,68.70
2017-12-27T03:03:19.095Z,68.90
2017-12-27T03:05:45.299Z,68.60
2017-12-27T03:08:11.500Z,69.10
2017-12-27T03:10:38.491Z,68.30
2017-12-27T03:13:04.688Z,68.20
2017-12-27T03:15:31.606Z,68.60
2017-12-27T03:17:58.508Z,68.20
2017-12-27T03:20:24.724Z,68.50
2017-12-27T03:22:50.927Z,68.10
2017-12-27T03:25:17.825Z,69.00
2017-12-27T03:27:44.037Z,68.90
2017-12-27T03:30:10.253Z,67.40
2017-12-27T03:32:36.454Z,68.40
2017-12-27T03:35:03.390Z,67.30
2017-12-27T03:37:30.362Z,68.40
2017-12-27T03:39:56.550Z,68.40
2017-12-27T03:42:22.773Z,67.60
2017-12-27T03:44:48.929Z,67.60
2017-12-27T03:47:15.894Z,67.30
2017-12-27T03:49:42.092Z,67.30
2017-12-27T03:52:08.267Z,67.50
2017-12-27T03:54:34.503Z,67.60
2017-12-27T03:57:00.677Z,67.20
2017-12-27T03:59:27.671Z,68.60
2017-12-27T04:01:53.879Z,67.80
2017-12-27T04:04:20.051Z,67.50
2017-12-27T04:06:46.239Z,67.20
2017-12-27T04:09:12.423Z,67.40
2017-12-27T04:11:39.347Z,67.30
2017-12-27T04:14:05.592Z,67.40
2017-12-27T04:16:32.587Z,68.30
2017-12-27T04:18:58.762Z,67.70
2017-12-27T04:21:25.691Z,67.90
2017-12-27T04:23:51.937Z,67.90
2017-12-27T04:26:18.132Z,67.50
2017-12-27T04:28:44.342Z,67.30
2017-12-27T04:31:10.539Z,67.40
2017-12-27T04:33:37.482Z,67.80
2017-12-27T04:36:04.403Z,67.40
2017-12-27T04:38:30.620Z,67.40
2017-12-27T04:40:56.865Z,68.20
2017-12-27T04:43:23.042Z,68.30
2017-12-27T04:45:49.233Z,67.90
2017-12-27T04:48:16.132Z,68.00
2017-12-27T04:50:42.315Z,68.00
2017-12-27T04:53:09.292Z,68.00
2017-12-27T04:55:35.490Z,68.00
2017-12-27T04:58:02.426Z,68.50
2017-12-27T05:00:29.383Z,66.90
2017-12-27T05:02:55.567Z,66.90
2017-12-27T05:05:21.818Z,67.60
2017-12-27T05:07:48.730Z,67.80
2017-12-27T05:10:14.956Z,67.80
2017-12-27T05:12:41.182Z,67.50
2017-12-27T05:15:07.431Z,67.60
2017-12-27T05:17:33.667Z,67.00
2017-12-27T05:19:59.852Z,67.60
2017-12-27T05:22:26.074Z,67.30
2017-12-27T05:24:52.304Z,67.70
2017-12-27T05:27:18.498Z,67.50
2017-12-27T05:29:45.496Z,67.80
2017-12-27T05:32:11.774Z,67.80
2017-12-27T05:34:38.684Z,67.70
2017-12-27T05:37:04.907Z,67.70
2017-12-27T05:39:31.079Z,68.30
2017-12-27T05:41:58.029Z,67.80
2017-12-27T05:44:24.241Z,67.80
2017-12-27T05:46:51.182Z,68.30
2017-12-27T05:49:17.369Z,67.60
2017-12-27T05:51:43.519Z,67.50
2017-12-27T05:54:09.710Z,67.60
2017-12-27T05:56:35.911Z,67.50
2017-12-27T05:59:02.870Z,67.20
2017-12-27T06:01:29.042Z,67.20
2017-12-27T06:03:55.322Z,67.50
2017-12-27T06:06:21.558Z,67.50
2017-12-27T06:08:47.752Z,67.40
2017-12-27T06:11:14.682Z,67.20
2017-12-27T06:13:40.886Z,67.70
2017-12-27T06:16:07.083Z,67.10
2017-12-27T06:18:33.269Z,68.00
2017-12-27T06:21:00.186Z,68.00
2017-12-27T06:23:26.367Z,68.00
2017-12-27T06:25:53.362Z,67.30
2017-12-27T06:28:19.546Z,67.20
2017-12-27T06:30:45.708Z,66.80
2017-12-27T06:33:11.899Z,67.10
2017-12-27T06:35:38.815Z,66.90
2017-12-27T06:38:04.986Z,67.00
2017-12-27T06:40:31.193Z,67.60
2017-12-27T06:42:58.144Z,67.10
2017-12-27T06:45:24.334Z,67.10
2017-12-27T06:47:50.514Z,66.80
2017-12-27T06:50:16.707Z,66.90
2017-12-27T06:52:43.649Z,67.00
2017-12-27T06:55:10.559Z,67.70
2017-12-27T06:57:36.744Z,67.30
2017-12-27T07:00:02.939Z,67.30
2017-12-27T07:02:29.142Z,66.90
2017-12-27T07:04:55.355Z,66.90
2017-12-27T07:07:21.569Z,66.40
2017-12-27T07:09:47.747Z,67.10
2017-12-27T07:12:13.890Z,66.50
2017-12-27T07:14:40.825Z,66.70
2017-12-27T07:17:07.757Z,66.60
2017-12-27T07:19:33.937Z,66.60
2017-12-27T07:22:00.136Z,66.90
2017-12-27T07:24:27.012Z,66.20
2017-12-27T07:26:53.241Z,66.50
2017-12-27T07:29:19.391Z,66.50
2017-12-27T07:31:45.566Z,65.60
2017-12-27T07:34:12.535Z,65.40
2017-12-27T07:36:38.773Z,65.40
2017-12-27T07:39:04.904Z,65.90
2017-12-27T07:41:31.142Z,65.70
2017-12-27T07:43:57.296Z,65.80
2017-12-27T07:46:23.483Z,65.70
2017-12-27T07:48:49.754Z,66.40
2017-12-27T07:51:16.697Z,65.70
2017-12-27T07:53:43.689Z,66.80
2017-12-27T07:56:09.895Z,66.90
2017-12-27T07:58:36.902Z,65.10
2017-12-27T08:01:03.215Z,65.10
2017-12-27T08:03:29.408Z,66.40
2017-12-27T08:05:56.343Z,65.70
2017-12-27T08:08:23.259Z,65.20
2017-12-27T08:10:49.490Z,65.40
2017-12-27T08:13:15.656Z,66.40
2017-12-27T08:15:42.620Z,66.70
2017-12-27T08:18:08.825Z,66.80
2017-12-27T08:20:35.758Z,65.80
2017-12-27T08:23:02.762Z,68.00
2017-12-27T08:25:29.004Z,68.00
2017-12-27T08:27:55.209Z,67.70
2017-12-27T08:30:21.441Z,67.40
2017-12-27T08:32:47.609Z,68.10
2017-12-27T08:35:14.550Z,67.60
2017-12-27T08:37:40.759Z,67.40
2017-12-27T08:40:06.966Z,67.80
2017-12-27T08:42:33.087Z,68.80
2017-12-27T08:44:59.288Z,69.00
2017-12-27T08:47:25.421Z,67.50
2017-12-27T08:49:51.654Z,67.60
2017-12-27T08:52:17.829Z,71.60
2017-12-27T08:54:44.067Z,68.70
2017-12-27T08:57:10.973Z,69.80
2017-12-27T08:59:37.126Z,69.90
2017-12-27T09:02:03.326Z,69.10
2017-12-27T09:04:29.552Z,67.30
2017-12-27T09:06:55.714Z,66.90
2017-12-27T09:09:21.937Z,68.20
2017-12-27T09:11:48.891Z,66.90
2017-12-27T09:14:15.158Z,66.90
2017-12-27T09:16:41.359Z,67.90
2017-12-27T09:19:08.305Z,65.90
2017-12-27T09:21:35.280Z,64.50
2017-12-27T09:24:01.455Z,64.50
2017-12-27T09:26:27.656Z,64.80
2017-12-27T09:28:53.815Z,64.30
2017-12-27T09:31:20.079Z,63.60
2017-12-27T09:33:46.289Z,64.20
2017-12-27T09:36:13.271Z,63.90
2017-12-27T09:38:39.495Z,63.80
2017-12-27T09:41:05.692Z,63.20
2017-12-27T09:43:32.600Z,61.30
2017-12-27T09:45:58.797Z,61.30
2017-12-27T09:48:25.029Z,60.20
2017-12-27T09:50:51.246Z,61.30
2017-12-27T09:53:17.498Z,61.10
2017-12-27T09:55:43.753Z,61.80
2017-12-27T09:58:09.970Z,60.50
2017-12-27T10:00:36.202Z,61.30
2017-12-27T10:03:02.441Z,60.70
2017-12-27T10:05:29.346Z,59.20
2017-12-27T10:07:55.544Z,59.20
2017-12-27T10:10:22.455Z,56.50
2017-12-27T10:12:48.687Z,56.40
2017-12-27T10:15:15.612Z,52.80
2017-12-27T10:17:41.824Z,52.80
2017-12-27T10:20:08.006Z,52.60
2017-12-27T10:22:34.185Z,53.50
2017-12-27T10:25:00.389Z,54.30
2017-12-27T10:27:26.630Z,54.80
2017-12-27T10:29:52.917Z,55.10
2017-12-27T10:32:19.843Z,56.40
2017-12-27T10:34:46.049Z,56.40
2017-12-27T10:37:12.339Z,56.20
2017-12-27T10:39:38.523Z,56.70
2017-12-27T10:42:04.800Z,56.50
2017-12-27T10:44:30.998Z,55.90
2017-12-27T10:46:57.209Z,56.40
2017-12-27T10:49:23.412Z,55.60
2017-12-27T10:51:49.629Z,56.10
2017-12-27T10:54:15.807Z,56.40
2017-12-27T10:56:41.941Z,57.70
2017-12-27T10:59:08.147Z,58.60
2017-12-27T11:01:34.320Z,56.90
2017-12-27T11:04:00.517Z,57.90
2017-12-27T11:06:26.752Z,58.20
2017-12-27T11:08:53.672Z,57.20
2017-12-27T11:11:19.848Z,57.20
2017-12-27T11:13:46.001Z,54.40
2017-12-27T11:16:12.234Z,55.20
2017-12-27T11:18:38.457Z,54.50
2017-12-27T11:21:04.654Z,55.50
2017-12-27T11:23:31.578Z,56.90
2017-12-27T11:25:57.775Z,56.90
2017-12-27T11:28:23.980Z,56.40
2017-12-27T11:30:50.247Z,55.60
2017-12-27T11:33:17.158Z,57.10
2017-12-27T11:35:43.397Z,57.10
2017-12-27T11:38:09.642Z,59.10
2017-12-27T11:40:36.595Z,59.00
2017-12-27T11:43:03.573Z,53.00
2017-12-27T11:45:29.758Z,52.90
2017-12-27T11:47:55.891Z,51.00
2017-12-27T11:50:22.146Z,50.50
2017-12-27T11:52:49.118Z,48.90
2017-12-27T11:55:15.322Z,48.90
2017-12-27T11:57:42.243Z,49.10
2017-12-27T12:00:09.177Z,48.10
2017-12-27T12:02:35.831Z,48.10
2017-12-27T12:05:02.077Z,48.90
2017-12-27T12:07:28.959Z,44.50
2017-12-27T12:09:55.147Z,44.50
2017-12-27T12:12:22.102Z,41.10
2017-12-27T12:14:48.265Z,41.10
2017-12-27T12:17:14.475Z,40.00
2017-12-27T12:19:40.701Z,38.60
2017-12-27T12:22:06.914Z,35.30
2017-12-27T12:24:33.092Z,33.60
2017-12-27T12:26:59.233Z,36.30
2017-12-27T12:29:25.411Z,35.60
2017-12-27T12:31:51.528Z,37.30
2017-12-27T12:34:17.687Z,40.30
2017-12-27T12:36:43.856Z,44.60
2017-12-27T12:39:10.044Z,45.40
2017-12-27T12:41:36.232Z,47.90
2017-12-27T12:44:02.394Z,49.10
2017-12-27T12:46:28.549Z,49.50
2017-12-27T12:48:55.499Z,50.90
2017-12-27T12:51:21.642Z,50.90
2017-12-27T12:53:48.579Z,51.90
2017-12-27T12:56:14.744Z,51.90
2017-12-27T12:58:40.977Z,53.00
2017-12-27T13:01:07.225Z,50.50
2017-12-27T13:03:33.379Z,51.30
2017-12-27T13:06:00.300Z,52.30
2017-12-27T13:08:26.528Z,52.30
2017-12-27T13:10:52.700Z,52.80
2017-12-27T13:13:19.643Z,53.10
2017-12-27T13:15:46.640Z,53.30
2017-12-27T13:18:12.882Z,53.40
2017-12-27T13:20:39.172Z,53.70
2017-12-27T13:23:05.351Z,53.60
2017-12-27T13:25:31.587Z,52.90
2017-12-27T13:27:58.539Z,53.90
2017-12-27T13:30:24.699Z,53.90
2017-12-27T13:32:50.970Z,53.70
2017-12-27T13:35:17.164Z,53.80
2017-12-27T13:37:43.384Z,54.70
2017-12-27T13:40:09.568Z,54.50
2017-12-27T13:42:35.785Z,54.00
2017-12-27T13:45:01.932Z,54.20
2017-12-27T13:47:28.203Z,53.90
2017-12-27T13:49:54.419Z,54.50
2017-12-27T13:52:20.636Z,54.30
2017-12-27T13:54:47.630Z,54.60
2017-12-27T13:57:13.869Z,54.60
2017-12-27T13:59:40.063Z,54.50
2017-12-27T14:02:06.235Z,56.00
2017-12-27T14:04:32.419Z,55.40
2017-12-27T14:06:58.611Z,55.70
2017-12-27T14:09:25.541Z,55.30
2017-12-27T14:11:51.729Z,55.30
2017-12-27T14:14:17.939Z,56.00
2017-12-27T14:16:44.114Z,55.30
2017-12-27T14:19:10.302Z,55.10
2017-12-27T14:21:36.519Z,56.00
2017-12-27T14:24:02.790Z,56.10
2017-12-27T14:26:29.691Z,56.00
2017-12-27T14:28:55.818Z,56.00
2017-12-27T14:31:22.019Z,56.10
2017-12-27T14:33:48.920Z,56.60
2017-12-27T14:36:15.146Z,56.60
2017-12-27T14:38:41.366Z,57.20
2017-12-27T14:41:07.551Z,56.90
2017-12-27T14:43:34.466Z,55.90
2017-12-27T14:46:01.446Z,56.10
2017-12-27T14:48:28.428Z,57.30
2017-12-27T14:50:54.568Z,56.70
2017-12-27T14:53:20.797Z,56.40
2017-12-27T14:55:46.989Z,57.40
2017-12-27T14:58:13.243Z,57.20
2017-12-27T15:00:39.473Z,57.30
2017-12-27T15:03:05.641Z,57.50
2017-12-27T15:05:31.826Z,57.60
2017-12-27T15:07:58.017Z,57.80
2017-12-27T15:10:24.951Z,58.10
2017-12-27T15:12:51.951Z,58.30
2017-12-27T15:15:18.174Z,58.10
2017-12-27T15:17:44.349Z,58.20
2017-12-27T15:20:11.330Z,59.80
2017-12-27T15:22:37.553Z,59.80
2017-12-27T15:25:03.706Z,58.70
2017-12-27T15:27:29.859Z,59.00
2017-12-27T15:29:56.796Z,59.40
2017-12-27T15:32:22.990Z,59.40
2017-12-27T15:34:49.183Z,59.90
2017-12-27T15:37:16.070Z,60.70
2017-12-27T15:39:42.228Z,60.70
2017-12-27T15:42:09.223Z,61.20
2017-12-27T15:44:35.449Z,61.30
2017-12-27T15:47:01.618Z,61.50
2017-12-27T15:49:27.825Z,61.60
2017-12-27T15:51:54.034Z,62.20
2017-12-27T15:54:20.210Z,61.30
2017-12-27T15:56:47.118Z,62.60
2017-12-27T15:59:13.270Z,62.70
2017-12-27T16:01:39.490Z,62.30
2017-12-27T16:04:05.742Z,62.00
2017-12-27T16:06:32.631Z,62.40
2017-12-27T16:08:58.875Z,62.20
2017-12-27T16:11:25.038Z,63.10
2017-12-27T16:13:51.239Z,63.80
2017-12-27T16:16:17.453Z,64.00
2017-12-27T16:18:43.670Z,63.90
2017-12-27T16:21:09.947Z,64.00
2017-12-27T16:23:36.950Z,64.90
2017-12-27T16:26:04.246Z,65.00
2017-12-27T16:28:30.402Z,65.50
2017-12-27T16:30:57.360Z,65.50
2017-12-27T16:33:23.567Z,65.50
2017-12-27T16:35:49.730Z,65.60
2017-12-27T16:38:15.953Z,65.80
2017-12-27T16:40:42.224Z,64.00
2017-12-27T16:43:08.406Z,65.10
2017-12-27T16:45:34.568Z,65.20
2017-12-27T16:48:00.759Z,65.50
2017-12-27T16:50:27.007Z,66.40
2017-12-27T16:52:53.211Z,65.80
2017-12-27T16:55:19.421Z,66.90
2017-12-27T16:57:46.304Z,66.60
2017-12-27T17:00:12.469Z,66.50
2017-12-27T17:02:38.682Z,66.70
2017-12-27T17:05:04.870Z,66.30
2017-12-27T17:07:31.055Z,66.50
2017-12-27T17:09:57.300Z,66.90
2017-12-27T17:12:24.310Z,67.70
2017-12-27T17:14:57.547Z,67.70
2017-12-27T17:17:24.491Z,67.00
2017-12-27T17:19:50.714Z,67.00
2017-12-27T17:22:17.744Z,66.80
2017-12-27T17:24:44.652Z,67.20
2017-12-27T17:27:10.788Z,67.20
2017-12-27T17:29:37.014Z,67.40
2017-12-27T17:32:03.263Z,66.90
2017-12-27T17:34:29.431Z,67.10
2017-12-27T17:36:56.393Z,67.20
2017-12-27T17:39:22.597Z,67.20
2017-12-27T17:41:49.512Z,68.40
2017-12-27T17:44:16.439Z,67.60
2017-12-27T17:46:42.709Z,67.60
2017-12-27T17:49:09.681Z,68.40
2017-12-27T17:51:35.862Z,68.40
2017-12-27T17:54:02.819Z,69.20
2017-12-27T17:56:29.727Z,68.90
2017-12-27T17:58:55.941Z,68.90
2017-12-27T18:01:22.144Z,68.40
2017-12-27T18:03:48.338Z,69.20
2017-12-27T18:06:15.230Z,69.00
2017-12-27T18:08:41.409Z,69.00
2017-12-27T18:11:08.319Z,70.00
2017-12-27T18:13:34.536Z,69.90
2017-12-27T18:16:00.743Z,69.80
2017-12-27T18:18:26.902Z,70.20
2017-12-27T18:20:53.064Z,70.10
2017-12-27T18:23:19.980Z,70.30
2017-12-27T18:25:46.199Z,70.40
2017-12-27T18:28:12.405Z,70.80
2017-12-27T18:30:38.584Z,70.70
2017-12-27T18:33:04.740Z,71.10
2017-12-27T18:35:31.705Z,70.80
2017-12-27T18:37:57.854Z,70.80
2017-12-27T18:40:24.077Z,71.20
2017-12-27T18:42:50.262Z,71.50
2017-12-27T18:45:17.176Z,71.90
2017-12-27T18:47:43.384Z,71.90
2017-12-27T18:50:09.615Z,72.00
2017-12-27T18:52:35.832Z,72.60
2017-12-27T18:55:02.046Z,72.80
2017-12-27T18:57:28.263Z,72.80
2017-12-27T18:59:54.468Z,72.40
2017-12-27T19:02:21.474Z,73.10
2017-12-27T19:04:47.706Z,72.20
2017-12-27T19:07:13.970Z,72.80
2017-12-27T19:09:40.945Z,72.70
2017-12-27T19:12:07.199Z,72.70
2017-12-27T19:14:33.491Z,73.30
2017-12-27T19:16:59.659Z,73.50
2017-12-27T19:19:25.892Z,73.90
2017-12-27T19:21:52.092Z,73.30
2017-12-27T19:24:18.264Z,73.50
2017-12-27T19:26:44.536Z,73.40
2017-12-27T19:29:10.746Z,74.20
2017-12-27T19:31:37.647Z,74.30
2017-12-27T19:34:03.904Z,74.30
2017-12-27T19:36:30.801Z,73.90
2017-12-27T19:38:56.998Z,73.90
2017-12-27T19:41:23.960Z,74.50
2017-12-27T19:43:50.161Z,74.40
2017-12-27T19:46:17.088Z,73.90
2017-12-27T19:48:43.996Z,74.90
2017-12-27T19:51:10.215Z,74.90
2017-12-27T19:53:36.368Z,74.50
2017-12-27T19:56:02.557Z,74.30
2017-12-27T19:58:28.795Z,74.80
2017-12-27T20:00:55.034Z,74.30
2017-12-27T20:03:21.247Z,74.20
2017-12-27T20:05:47.455Z,73.90
2017-12-27T20:08:14.397Z,73.30
2017-12-27T20:10:41.354Z,74.00
2017-12-27T20:13:07.528Z,74.00
2017-12-27T20:15:33.711Z,75.30
2017-12-27T20:17:59.888Z,74.50
2017-12-27T20:20:26.038Z,74.30
2017-12-27T20:22:52.946Z,74.10
2017-12-27T20:25:19.146Z,74.10
2017-12-27T20:27:45.276Z,75.10
2017-12-27T20:30:11.522Z,75.10
2017-12-27T20:32:37.802Z,75.00
2017-12-27T20:35:04.767Z,75.40
2017-12-27T20:37:30.949Z,76.10
2017-12-27T20:39:57.160Z,75.10
2017-12-27T20:42:23.411Z,75.40
2017-12-27T20:44:50.364Z,74.70
2017-12-27T20:47:16.551Z,74.70
2017-12-27T20:49:42.765Z,75.70
2017-12-27T20:52:08.930Z,74.20
2017-12-27T20:54:35.082Z,74.00
2017-12-27T20:57:08.922Z,74.10
2017-12-27T20:59:35.178Z,73.90
2017-12-27T21:02:01.400Z,75.30
2017-12-27T21:04:27.623Z,74.60
2017-12-27T21:06:53.827Z,75.40
2017-12-27T21:09:20.012Z,75.30
2017-12-27T21:11:46.206Z,75.50
2017-12-27T21:14:12.407Z,75.50
2017-12-27T21:16:38.643Z,75.30
2017-12-27T21:19:04.827Z,75.20
2017-12-27T21:21:31.738Z,75.40
2017-12-27T21:23:57.946Z,75.40
2017-12-27T21:26:24.165Z,75.60
2017-12-27T21:28:50.385Z,75.00
2017-12-27T21:31:17.325Z,74.80
2017-12-27T21:33:44.309Z,74.20
2017-12-27T21:36:10.513Z,74.20
2017-12-27T21:38:36.729Z,74.50
2017-12-27T21:41:03.699Z,75.30
2017-12-27T21:43:29.912Z,75.30
2017-12-27T21:45:56.122Z,75.10
2017-12-27T21:48:29.190Z,75.80
2017-12-27T21:50:55.340Z,75.80
2017-12-27T21:53:22.270Z,75.80
2017-12-27T21:55:49.184Z,76.20
2017-12-27T21:58:21.500Z,75.90
2017-12-27T22:00:54.654Z,75.90
2017-12-27T22:03:20.864Z,75.90
2017-12-27T22:05:47.104Z,76.00
2017-12-27T22:08:13.346Z,75.30
2017-12-27T22:10:40.222Z,76.20
2017-12-27T22:13:07.088Z,75.10
2017-12-27T22:15:33.317Z,75.10
2017-12-27T22:17:59.515Z,75.30
2017-12-27T22:20:32.592Z,75.50
2017-12-27T22:22:58.799Z,75.50
2017-12-27T22:25:25.054Z,75.70
2017-12-27T22:27:51.982Z,75.60
2017-12-27T22:30:18.236Z,75.50
2017-12-27T22:32:45.205Z,75.40
2017-12-27T22:35:11.407Z,75.40
2017-12-27T22:37:38.352Z,75.10
2017-12-27T22:40:05.280Z,76.00
2017-12-27T22:42:32.303Z,75.40
2017-12-27T22:44:58.532Z,75.40
2017-12-27T22:47:24.672Z,76.00
2017-12-27T22:49:50.844Z,75.50
2017-12-27T22:52:17.032Z,75.90
2017-12-27T22:54:43.277Z,75.80
2017-12-27T22:57:10.214Z,76.10
2017-12-27T22:59:37.183Z,75.90
2017-12-27T23:02:03.377Z,76.00
2017-12-27T23:04:29.560Z,75.80
2017-12-27T23:06:55.691Z,76.40
2017-12-27T23:09:21.915Z,76.80
2017-12-27T23:11:48.125Z,77.00
2017-12-27T23:14:14.360Z,77.70
2017-12-27T23:16:40.513Z,78.10
2017-12-27T23:19:06.679Z,77.30
2017-12-27T23:21:32.834Z,77.90
2017-12-27T23:23:59.013Z,77.80
2017-12-27T23:26:25.248Z,76.90
2017-12-27T23:28:51.510Z,77.40
2017-12-27T23:31:18.428Z,78.40
2017-12-27T23:33:44.613Z,78.40
2017-12-27T23:36:10.819Z,78.50
2017-12-27T23:38:36.959Z,77.70
2017-12-27T23:41:03.214Z,78.00
2017-12-27T23:43:29.419Z,78.00
2017-12-27T23:45:55.638Z,78.70
2017-12-27T23:48:21.867Z,78.50
2017-12-27T23:50:48.090Z,78.50
2017-12-27T23:53:14.208Z,78.50
2017-12-27T23:55:41.121Z,79.90
2017-12-27T23:58:07.335Z,79.90
